sensor_id;sensor_type;location;lat;lon;timestamp;P1;durP1;ratioP1;P2;durP2;ratioP2
23716;SDS011;22094;52.130;5.598;2023-07-24T00:00:56;6.82;;;5.45;;
23716;SDS011;22094;52.130;5.598;2023-07-24T00:03:21;6.78;;;5.65;;
23716;SDS011;22094;52.130;5.598;2023-07-24T00:05:47;6.10;;;5.20;;
23716;SDS011;22094;52.130;5.598;2023-07-24T00:08:13;6.75;;;6.03;;
23716;SDS011;22094;52.130;5.598;2023-07-24T00:10:38;6.63;;;6.03;;
23716;SDS011;22094;52.130;5.598;2023-07-24T00:13:04;9.18;;;6.63;;
23716;SDS011;22094;52.130;5.598;2023-07-24T00:15:30;7.65;;;6.90;;
23716;SDS011;22094;52.130;5.598;2023-07-24T00:17:55;7.88;;;7.13;;
23716;SDS011;22094;52.130;5.598;2023-07-24T00:20:21;8.73;;;7.95;;
23716;SDS011;22094;52.130;5.598;2023-07-24T00:22:47;10.65;;;8.80;;
23716;SDS011;22094;52.130;5.598;2023-07-24T00:25:12;10.02;;;9.02;;
23716;SDS011;22094;52.130;5.598;2023-07-24T00:27:38;9.90;;;8.90;;
23716;SDS011;22094;52.130;5.598;2023-07-24T00:30:03;9.98;;;9.05;;
23716;SDS011;22094;52.130;5.598;2023-07-24T00:32:30;12.07;;;9.95;;
23716;SDS011;22094;52.130;5.598;2023-07-24T00:34:55;11.07;;;9.93;;
23716;SDS011;22094;52.130;5.598;2023-07-24T00:37:21;10.32;;;9.35;;
23716;SDS011;22094;52.130;5.598;2023-07-24T00:39:46;10.30;;;9.30;;
23716;SDS011;22094;52.130;5.598;2023-07-24T00:42:12;11.23;;;10.02;;
23716;SDS011;22094;52.130;5.598;2023-07-24T00:44:37;10.88;;;9.48;;
23716;SDS011;22094;52.130;5.598;2023-07-24T00:47:03;10.52;;;9.52;;
23716;SDS011;22094;52.130;5.598;2023-07-24T00:49:30;10.50;;;9.13;;
23716;SDS011;22094;52.130;5.598;2023-07-24T00:51:55;9.82;;;8.82;;
23716;SDS011;22094;52.130;5.598;2023-07-24T00:54:21;9.38;;;8.48;;
23716;SDS011;22094;52.130;5.598;2023-07-24T00:56:48;10.20;;;9.30;;
23716;SDS011;22094;52.130;5.598;2023-07-24T00:59:14;9.93;;;9.02;;
23716;SDS011;22094;52.130;5.598;2023-07-24T01:01:40;9.60;;;8.25;;
23716;SDS011;22094;52.130;5.598;2023-07-24T01:04:07;8.93;;;8.10;;
23716;SDS011;22094;52.130;5.598;2023-07-24T01:06:33;8.98;;;8.18;;
23716;SDS011;22094;52.130;5.598;2023-07-24T01:09:02;9.52;;;8.65;;
23716;SDS011;22094;52.130;5.598;2023-07-24T01:11:36;9.60;;;8.75;;
23716;SDS011;22094;52.130;5.598;2023-07-24T01:16:58;11.65;;;10.50;;
23716;SDS011;22094;52.130;5.598;2023-07-24T01:22:29;12.75;;;11.45;;
23716;SDS011;22094;52.130;5.598;2023-07-24T01:25:00;14.25;;;12.40;;
23716;SDS011;22094;52.130;5.598;2023-07-24T01:27:45;13.35;;;11.95;;
23716;SDS011;22094;52.130;5.598;2023-07-24T01:30:11;13.35;;;12.05;;
23716;SDS011;22094;52.130;5.598;2023-07-24T01:32:39;13.13;;;11.82;;
23716;SDS011;22094;52.130;5.598;2023-07-24T01:35:05;13.50;;;12.10;;
23716;SDS011;22094;52.130;5.598;2023-07-24T01:37:31;12.43;;;11.23;;
23716;SDS011;22094;52.130;5.598;2023-07-24T01:39:58;13.00;;;11.70;;
23716;SDS011;22094;52.130;5.598;2023-07-24T01:42:24;12.95;;;11.73;;
23716;SDS011;22094;52.130;5.598;2023-07-24T01:44:54;13.07;;;11.73;;
23716;SDS011;22094;52.130;5.598;2023-07-24T01:47:20;12.90;;;11.63;;
23716;SDS011;22094;52.130;5.598;2023-07-24T01:49:46;13.00;;;11.57;;
23716;SDS011;22094;52.130;5.598;2023-07-24T01:52:12;13.60;;;12.20;;
23716;SDS011;22094;52.130;5.598;2023-07-24T01:54:38;12.30;;;11.10;;
23716;SDS011;22094;52.130;5.598;2023-07-24T01:57:04;13.18;;;11.77;;
23716;SDS011;22094;52.130;5.598;2023-07-24T01:59:30;13.20;;;11.90;;
23716;SDS011;22094;52.130;5.598;2023-07-24T02:01:56;13.15;;;11.93;;
23716;SDS011;22094;52.130;5.598;2023-07-24T02:04:21;12.35;;;11.15;;
23716;SDS011;22094;52.130;5.598;2023-07-24T02:06:48;12.65;;;11.38;;
23716;SDS011;22094;52.130;5.598;2023-07-24T02:09:14;12.90;;;11.52;;
23716;SDS011;22094;52.130;5.598;2023-07-24T02:11:41;12.77;;;11.57;;
23716;SDS011;22094;52.130;5.598;2023-07-24T02:14:06;12.98;;;11.68;;
23716;SDS011;22094;52.130;5.598;2023-07-24T02:16:32;13.00;;;11.73;;
23716;SDS011;22094;52.130;5.598;2023-07-24T02:18:58;12.82;;;11.63;;
23716;SDS011;22094;52.130;5.598;2023-07-24T02:21:24;13.32;;;11.93;;
23716;SDS011;22094;52.130;5.598;2023-07-24T02:23:49;11.70;;;10.60;;
23716;SDS011;22094;52.130;5.598;2023-07-24T02:26:15;12.25;;;10.95;;
23716;SDS011;22094;52.130;5.598;2023-07-24T02:28:40;11.60;;;10.40;;
23716;SDS011;22094;52.130;5.598;2023-07-24T02:31:06;11.38;;;10.27;;
23716;SDS011;22094;52.130;5.598;2023-07-24T02:33:32;12.18;;;10.98;;
23716;SDS011;22094;52.130;5.598;2023-07-24T02:35:57;13.15;;;11.40;;
23716;SDS011;22094;52.130;5.598;2023-07-24T02:38:23;11.80;;;10.40;;
23716;SDS011;22094;52.130;5.598;2023-07-24T02:40:48;10.57;;;9.57;;
23716;SDS011;22094;52.130;5.598;2023-07-24T02:43:14;10.00;;;9.00;;
23716;SDS011;22094;52.130;5.598;2023-07-24T02:45:40;11.00;;;9.90;;
23716;SDS011;22094;52.130;5.598;2023-07-24T02:48:06;9.85;;;8.93;;
23716;SDS011;22094;52.130;5.598;2023-07-24T02:50:34;9.77;;;8.57;;
23716;SDS011;22094;52.130;5.598;2023-07-24T02:53:00;10.05;;;8.85;;
23716;SDS011;22094;52.130;5.598;2023-07-24T02:55:26;10.80;;;9.70;;
23716;SDS011;22094;52.130;5.598;2023-07-24T02:57:52;9.23;;;8.43;;
23716;SDS011;22094;52.130;5.598;2023-07-24T03:00:18;10.50;;;9.50;;
23716;SDS011;22094;52.130;5.598;2023-07-24T03:02:44;8.82;;;7.93;;
23716;SDS011;22094;52.130;5.598;2023-07-24T03:05:10;10.50;;;9.50;;
23716;SDS011;22094;52.130;5.598;2023-07-24T03:07:36;9.45;;;8.55;;
23716;SDS011;22094;52.130;5.598;2023-07-24T03:10:02;9.23;;;8.32;;
23716;SDS011;22094;52.130;5.598;2023-07-24T03:12:28;9.63;;;8.05;;
23716;SDS011;22094;52.130;5.598;2023-07-24T03:14:53;9.98;;;7.95;;
23716;SDS011;22094;52.130;5.598;2023-07-24T03:17:19;7.60;;;6.68;;
23716;SDS011;22094;52.130;5.598;2023-07-24T03:19:44;8.00;;;7.20;;
23716;SDS011;22094;52.130;5.598;2023-07-24T03:22:10;8.90;;;7.60;;
23716;SDS011;22094;52.130;5.598;2023-07-24T03:24:36;9.18;;;7.75;;
23716;SDS011;22094;52.130;5.598;2023-07-24T03:27:02;8.63;;;7.55;;
23716;SDS011;22094;52.130;5.598;2023-07-24T03:29:27;8.55;;;7.60;;
23716;SDS011;22094;52.130;5.598;2023-07-24T03:31:53;8.43;;;7.53;;
23716;SDS011;22094;52.130;5.598;2023-07-24T03:34:19;12.05;;;8.13;;
23716;SDS011;22094;52.130;5.598;2023-07-24T03:36:44;9.75;;;8.35;;
23716;SDS011;22094;52.130;5.598;2023-07-24T03:39:10;11.13;;;8.35;;
23716;SDS011;22094;52.130;5.598;2023-07-24T03:41:36;10.82;;;8.55;;
23716;SDS011;22094;52.130;5.598;2023-07-24T03:44:02;12.77;;;9.13;;
23716;SDS011;22094;52.130;5.598;2023-07-24T03:46:28;12.68;;;9.52;;
23716;SDS011;22094;52.130;5.598;2023-07-24T03:48:54;12.25;;;9.75;;
23716;SDS011;22094;52.130;5.598;2023-07-24T03:51:19;11.90;;;10.13;;
23716;SDS011;22094;52.130;5.598;2023-07-24T03:53:45;13.27;;;10.65;;
23716;SDS011;22094;52.130;5.598;2023-07-24T03:56:11;12.35;;;10.32;;
23716;SDS011;22094;52.130;5.598;2023-07-24T03:58:37;12.93;;;10.38;;
23716;SDS011;22094;52.130;5.598;2023-07-24T04:01:05;15.30;;;11.05;;
23716;SDS011;22094;52.130;5.598;2023-07-24T04:03:31;14.73;;;10.88;;
23716;SDS011;22094;52.130;5.598;2023-07-24T04:05:57;14.98;;;10.75;;
23716;SDS011;22094;52.130;5.598;2023-07-24T04:08:23;15.75;;;11.18;;
23716;SDS011;22094;52.130;5.598;2023-07-24T04:10:48;17.40;;;11.73;;
23716;SDS011;22094;52.130;5.598;2023-07-24T04:13:14;15.73;;;11.75;;
23716;SDS011;22094;52.130;5.598;2023-07-24T04:15:39;17.90;;;12.15;;
23716;SDS011;22094;52.130;5.598;2023-07-24T04:18:05;20.00;;;12.85;;
23716;SDS011;22094;52.130;5.598;2023-07-24T04:20:31;16.10;;;12.23;;
23716;SDS011;22094;52.130;5.598;2023-07-24T04:22:56;18.55;;;12.57;;
23716;SDS011;22094;52.130;5.598;2023-07-24T04:25:22;16.55;;;11.88;;
23716;SDS011;22094;52.130;5.598;2023-07-24T04:27:48;18.10;;;12.05;;
23716;SDS011;22094;52.130;5.598;2023-07-24T04:30:14;19.90;;;13.05;;
23716;SDS011;22094;52.130;5.598;2023-07-24T04:32:40;17.15;;;12.15;;
23716;SDS011;22094;52.130;5.598;2023-07-24T04:35:06;16.25;;;11.57;;
23716;SDS011;22094;52.130;5.598;2023-07-24T04:37:32;15.95;;;12.25;;
23716;SDS011;22094;52.130;5.598;2023-07-24T04:39:57;15.85;;;12.50;;
23716;SDS011;22094;52.130;5.598;2023-07-24T04:42:23;15.98;;;12.55;;
23716;SDS011;22094;52.130;5.598;2023-07-24T04:44:49;18.88;;;13.15;;
23716;SDS011;22094;52.130;5.598;2023-07-24T04:47:16;16.42;;;11.55;;
23716;SDS011;22094;52.130;5.598;2023-07-24T04:49:42;17.92;;;12.57;;
23716;SDS011;22094;52.130;5.598;2023-07-24T04:52:08;17.08;;;12.02;;
23716;SDS011;22094;52.130;5.598;2023-07-24T04:54:33;16.63;;;12.38;;
23716;SDS011;22094;52.130;5.598;2023-07-24T04:56:59;16.45;;;12.30;;
23716;SDS011;22094;52.130;5.598;2023-07-24T04:59:24;16.58;;;12.07;;
23716;SDS011;22094;52.130;5.598;2023-07-24T05:01:50;13.90;;;11.68;;
23716;SDS011;22094;52.130;5.598;2023-07-24T05:04:15;18.38;;;12.50;;
23716;SDS011;22094;52.130;5.598;2023-07-24T05:06:41;17.30;;;12.55;;
23716;SDS011;22094;52.130;5.598;2023-07-24T05:09:07;15.93;;;13.07;;
23716;SDS011;22094;52.130;5.598;2023-07-24T05:11:32;17.30;;;12.27;;
23716;SDS011;22094;52.130;5.598;2023-07-24T05:13:58;17.17;;;12.35;;
23716;SDS011;22094;52.130;5.598;2023-07-24T05:16:24;16.48;;;12.93;;
23716;SDS011;22094;52.130;5.598;2023-07-24T05:18:50;15.75;;;12.48;;
23716;SDS011;22094;52.130;5.598;2023-07-24T05:21:15;16.63;;;12.52;;
23716;SDS011;22094;52.130;5.598;2023-07-24T05:23:41;15.93;;;12.73;;
23716;SDS011;22094;52.130;5.598;2023-07-24T05:26:06;17.85;;;12.40;;
23716;SDS011;22094;52.130;5.598;2023-07-24T05:28:32;15.82;;;12.43;;
23716;SDS011;22094;52.130;5.598;2023-07-24T05:31:02;14.55;;;11.45;;
23716;SDS011;22094;52.130;5.598;2023-07-24T05:33:29;16.80;;;11.43;;
23716;SDS011;22094;52.130;5.598;2023-07-24T05:35:58;13.50;;;10.88;;
23716;SDS011;22094;52.130;5.598;2023-07-24T05:38:25;14.43;;;10.98;;
23716;SDS011;22094;52.130;5.598;2023-07-24T05:40:57;13.50;;;10.73;;
23716;SDS011;22094;52.130;5.598;2023-07-24T05:43:24;14.18;;;10.30;;
23716;SDS011;22094;52.130;5.598;2023-07-24T05:45:50;13.73;;;10.52;;
23716;SDS011;22094;52.130;5.598;2023-07-24T05:48:17;12.68;;;9.48;;
23716;SDS011;22094;52.130;5.598;2023-07-24T05:50:42;11.60;;;9.80;;
23716;SDS011;22094;52.130;5.598;2023-07-24T05:53:08;11.32;;;9.93;;
23716;SDS011;22094;52.130;5.598;2023-07-24T05:55:34;11.93;;;9.63;;
23716;SDS011;22094;52.130;5.598;2023-07-24T05:58:00;10.32;;;9.00;;
23716;SDS011;22094;52.130;5.598;2023-07-24T06:00:26;11.40;;;9.45;;
23716;SDS011;22094;52.130;5.598;2023-07-24T06:02:52;12.05;;;9.25;;
23716;SDS011;22094;52.130;5.598;2023-07-24T06:05:19;11.25;;;9.70;;
23716;SDS011;22094;52.130;5.598;2023-07-24T06:07:45;14.05;;;9.45;;
23716;SDS011;22094;52.130;5.598;2023-07-24T06:10:11;15.68;;;9.80;;
23716;SDS011;22094;52.130;5.598;2023-07-24T06:12:36;15.25;;;9.45;;
23716;SDS011;22094;52.130;5.598;2023-07-24T06:15:02;14.00;;;9.25;;
23716;SDS011;22094;52.130;5.598;2023-07-24T06:17:28;13.25;;;8.73;;
23716;SDS011;22094;52.130;5.598;2023-07-24T06:19:54;13.27;;;9.15;;
23716;SDS011;22094;52.130;5.598;2023-07-24T06:22:19;10.15;;;9.10;;
23716;SDS011;22094;52.130;5.598;2023-07-24T06:24:45;9.82;;;8.38;;
23716;SDS011;22094;52.130;5.598;2023-07-24T06:27:11;14.52;;;10.10;;
23716;SDS011;22094;52.130;5.598;2023-07-24T06:29:37;12.48;;;8.93;;
23716;SDS011;22094;52.130;5.598;2023-07-24T06:32:02;11.32;;;9.27;;
23716;SDS011;22094;52.130;5.598;2023-07-24T06:34:28;11.63;;;8.63;;
23716;SDS011;22094;52.130;5.598;2023-07-24T06:36:54;11.35;;;8.40;;
23716;SDS011;22094;52.130;5.598;2023-07-24T06:39:19;10.63;;;8.07;;
23716;SDS011;22094;52.130;5.598;2023-07-24T06:41:45;9.55;;;8.05;;
23716;SDS011;22094;52.130;5.598;2023-07-24T06:44:11;9.90;;;7.72;;
23716;SDS011;22094;52.130;5.598;2023-07-24T06:46:36;13.80;;;7.85;;
23716;SDS011;22094;52.130;5.598;2023-07-24T06:49:02;11.98;;;7.88;;
23716;SDS011;22094;52.130;5.598;2023-07-24T06:51:28;9.93;;;7.25;;
23716;SDS011;22094;52.130;5.598;2023-07-24T06:53:53;8.60;;;7.00;;
23716;SDS011;22094;52.130;5.598;2023-07-24T06:56:19;9.85;;;7.63;;
23716;SDS011;22094;52.130;5.598;2023-07-24T06:58:44;10.68;;;7.15;;
23716;SDS011;22094;52.130;5.598;2023-07-24T07:01:10;8.77;;;6.60;;
23716;SDS011;22094;52.130;5.598;2023-07-24T07:03:35;11.20;;;7.80;;
23716;SDS011;22094;52.130;5.598;2023-07-24T07:06:01;9.75;;;7.00;;
23716;SDS011;22094;52.130;5.598;2023-07-24T07:08:27;9.32;;;7.20;;
23716;SDS011;22094;52.130;5.598;2023-07-24T07:10:59;8.45;;;6.85;;
23716;SDS011;22094;52.130;5.598;2023-07-24T07:13:26;9.13;;;6.88;;
23716;SDS011;22094;52.130;5.598;2023-07-24T07:15:51;13.18;;;7.55;;
23716;SDS011;22094;52.130;5.598;2023-07-24T07:18:18;12.15;;;7.45;;
23716;SDS011;22094;52.130;5.598;2023-07-24T07:20:47;9.30;;;7.18;;
23716;SDS011;22094;52.130;5.598;2023-07-24T07:23:14;11.95;;;8.05;;
23716;SDS011;22094;52.130;5.598;2023-07-24T07:25:39;10.48;;;8.48;;
23716;SDS011;22094;52.130;5.598;2023-07-24T07:28:05;11.45;;;7.47;;
23716;SDS011;22094;52.130;5.598;2023-07-24T07:30:31;9.25;;;6.75;;
23716;SDS011;22094;52.130;5.598;2023-07-24T07:32:57;9.88;;;7.50;;
23716;SDS011;22094;52.130;5.598;2023-07-24T07:35:22;8.23;;;6.60;;
23716;SDS011;22094;52.130;5.598;2023-07-24T07:37:48;8.95;;;6.90;;
23716;SDS011;22094;52.130;5.598;2023-07-24T07:40:14;8.43;;;6.25;;
23716;SDS011;22094;52.130;5.598;2023-07-24T07:42:39;7.70;;;5.80;;
23716;SDS011;22094;52.130;5.598;2023-07-24T07:45:06;9.95;;;6.05;;
23716;SDS011;22094;52.130;5.598;2023-07-24T07:47:31;9.45;;;6.25;;
23716;SDS011;22094;52.130;5.598;2023-07-24T07:49:57;6.93;;;5.68;;
23716;SDS011;22094;52.130;5.598;2023-07-24T07:52:23;8.85;;;6.22;;
23716;SDS011;22094;52.130;5.598;2023-07-24T07:54:49;7.07;;;5.35;;
23716;SDS011;22094;52.130;5.598;2023-07-24T07:57:15;7.03;;;5.88;;
23716;SDS011;22094;52.130;5.598;2023-07-24T07:59:41;6.18;;;5.57;;
23716;SDS011;22094;52.130;5.598;2023-07-24T08:02:07;6.75;;;5.57;;
23716;SDS011;22094;52.130;5.598;2023-07-24T08:04:33;6.88;;;5.53;;
23716;SDS011;22094;52.130;5.598;2023-07-24T08:06:59;8.65;;;6.63;;
23716;SDS011;22094;52.130;5.598;2023-07-24T08:09:24;8.30;;;6.38;;
23716;SDS011;22094;52.130;5.598;2023-07-24T08:11:50;10.10;;;7.05;;
23716;SDS011;22094;52.130;5.598;2023-07-24T08:14:16;8.55;;;5.97;;
23716;SDS011;22094;52.130;5.598;2023-07-24T08:16:42;7.65;;;6.07;;
23716;SDS011;22094;52.130;5.598;2023-07-24T08:19:08;10.38;;;6.47;;
23716;SDS011;22094;52.130;5.598;2023-07-24T08:21:34;8.57;;;6.68;;
23716;SDS011;22094;52.130;5.598;2023-07-24T08:24:00;9.95;;;7.20;;
23716;SDS011;22094;52.130;5.598;2023-07-24T08:26:27;8.02;;;6.75;;
23716;SDS011;22094;52.130;5.598;2023-07-24T08:28:53;10.70;;;7.53;;
23716;SDS011;22094;52.130;5.598;2023-07-24T08:31:19;9.93;;;7.03;;
23716;SDS011;22094;52.130;5.598;2023-07-24T08:33:45;12.32;;;6.45;;
23716;SDS011;22094;52.130;5.598;2023-07-24T08:36:11;8.45;;;6.53;;
23716;SDS011;22094;52.130;5.598;2023-07-24T08:38:37;8.00;;;6.55;;
23716;SDS011;22094;52.130;5.598;2023-07-24T08:41:07;8.13;;;6.10;;
23716;SDS011;22094;52.130;5.598;2023-07-24T08:43:38;7.38;;;6.25;;
23716;SDS011;22094;52.130;5.598;2023-07-24T08:46:08;7.95;;;6.35;;
23716;SDS011;22094;52.130;5.598;2023-07-24T08:48:39;8.48;;;5.75;;
23716;SDS011;22094;52.130;5.598;2023-07-24T08:51:15;6.70;;;5.43;;
23716;SDS011;22094;52.130;5.598;2023-07-24T08:53:45;10.65;;;5.57;;
23716;SDS011;22094;52.130;5.598;2023-07-24T08:56:12;8.20;;;6.40;;
23716;SDS011;22094;52.130;5.598;2023-07-24T08:58:38;10.30;;;7.60;;
23716;SDS011;22094;52.130;5.598;2023-07-24T09:01:04;8.88;;;6.97;;
23716;SDS011;22094;52.130;5.598;2023-07-24T09:03:31;7.07;;;5.82;;
23716;SDS011;22094;52.130;5.598;2023-07-24T09:05:57;12.43;;;6.82;;
23716;SDS011;22094;52.130;5.598;2023-07-24T09:08:33;10.05;;;7.25;;
23716;SDS011;22094;52.130;5.598;2023-07-24T09:10:59;7.90;;;7.10;;
23716;SDS011;22094;52.130;5.598;2023-07-24T09:13:25;10.02;;;7.53;;
23716;SDS011;22094;52.130;5.598;2023-07-24T09:15:51;10.82;;;7.75;;
23716;SDS011;22094;52.130;5.598;2023-07-24T09:18:17;10.65;;;7.28;;
23716;SDS011;22094;52.130;5.598;2023-07-24T09:20:44;10.55;;;7.55;;
23716;SDS011;22094;52.130;5.598;2023-07-24T09:23:11;8.77;;;7.45;;
23716;SDS011;22094;52.130;5.598;2023-07-24T09:25:38;11.95;;;8.43;;
23716;SDS011;22094;52.130;5.598;2023-07-24T09:28:23;9.43;;;8.15;;
23716;SDS011;22094;52.130;5.598;2023-07-24T09:31:07;9.73;;;7.07;;
23716;SDS011;22094;52.130;5.598;2023-07-24T09:33:36;7.93;;;6.15;;
23716;SDS011;22094;52.130;5.598;2023-07-24T09:36:04;7.90;;;5.60;;
23716;SDS011;22094;52.130;5.598;2023-07-24T09:38:32;10.63;;;6.05;;
23716;SDS011;22094;52.130;5.598;2023-07-24T09:40:57;8.18;;;6.68;;
23716;SDS011;22094;52.130;5.598;2023-07-24T09:43:26;7.68;;;6.25;;
23716;SDS011;22094;52.130;5.598;2023-07-24T09:45:53;9.38;;;6.22;;
23716;SDS011;22094;52.130;5.598;2023-07-24T09:48:20;10.35;;;5.88;;
23716;SDS011;22094;52.130;5.598;2023-07-24T09:50:47;7.65;;;5.38;;
23716;SDS011;22094;52.130;5.598;2023-07-24T09:58:23;7.35;;;5.57;;
23716;SDS011;22094;52.130;5.598;2023-07-24T10:00:51;9.00;;;5.20;;
23716;SDS011;22094;52.130;5.598;2023-07-24T10:03:17;8.32;;;4.93;;
23716;SDS011;22094;52.130;5.598;2023-07-24T10:05:45;10.30;;;4.97;;
23716;SDS011;22094;52.130;5.598;2023-07-24T10:08:11;7.25;;;4.70;;
23716;SDS011;22094;52.130;5.598;2023-07-24T10:10:39;8.00;;;5.15;;
23716;SDS011;22094;52.130;5.598;2023-07-24T10:13:05;7.15;;;5.18;;
23716;SDS011;22094;52.130;5.598;2023-07-24T10:15:35;8.80;;;5.00;;
23716;SDS011;22094;52.130;5.598;2023-07-24T10:18:06;8.00;;;4.80;;
23716;SDS011;22094;52.130;5.598;2023-07-24T10:20:36;6.78;;;4.95;;
23716;SDS011;22094;52.130;5.598;2023-07-24T10:23:03;9.75;;;5.63;;
23716;SDS011;22094;52.130;5.598;2023-07-24T10:25:30;9.30;;;5.47;;
23716;SDS011;22094;52.130;5.598;2023-07-24T10:28:07;7.65;;;4.97;;
23716;SDS011;22094;52.130;5.598;2023-07-24T10:30:36;7.65;;;5.20;;
23716;SDS011;22094;52.130;5.598;2023-07-24T10:38:12;7.97;;;4.90;;
23716;SDS011;22094;52.130;5.598;2023-07-24T10:40:40;7.72;;;5.22;;
23716;SDS011;22094;52.130;5.598;2023-07-24T10:43:08;6.57;;;4.47;;
23716;SDS011;22094;52.130;5.598;2023-07-24T10:45:39;7.30;;;4.55;;
23716;SDS011;22094;52.130;5.598;2023-07-24T10:48:07;9.05;;;4.70;;
23716;SDS011;22094;52.130;5.598;2023-07-24T10:50:40;6.40;;;4.93;;
23716;SDS011;22094;52.130;5.598;2023-07-24T10:53:07;6.22;;;4.93;;
23716;SDS011;22094;52.130;5.598;2023-07-24T10:55:34;10.02;;;5.30;;
23716;SDS011;22094;52.130;5.598;2023-07-24T10:58:00;8.27;;;5.63;;
23716;SDS011;22094;52.130;5.598;2023-07-24T11:00:26;7.30;;;4.78;;
23716;SDS011;22094;52.130;5.598;2023-07-24T11:02:55;7.40;;;4.93;;
23716;SDS011;22094;52.130;5.598;2023-07-24T11:05:21;7.82;;;5.35;;
23716;SDS011;22094;52.130;5.598;2023-07-24T11:07:47;6.82;;;4.95;;
23716;SDS011;22094;52.130;5.598;2023-07-24T11:10:20;5.55;;;4.18;;
23716;SDS011;22094;52.130;5.598;2023-07-24T11:12:47;9.65;;;5.20;;
23716;SDS011;22094;52.130;5.598;2023-07-24T11:15:13;6.97;;;4.57;;
23716;SDS011;22094;52.130;5.598;2023-07-24T11:17:40;9.18;;;5.00;;
23716;SDS011;22094;52.130;5.598;2023-07-24T11:22:33;6.18;;;4.20;;
23716;SDS011;22094;52.130;5.598;2023-07-24T11:24:59;9.15;;;4.70;;
23716;SDS011;22094;52.130;5.598;2023-07-24T11:27:26;9.48;;;5.38;;
23716;SDS011;22094;52.130;5.598;2023-07-24T11:29:52;7.28;;;4.60;;
23716;SDS011;22094;52.130;5.598;2023-07-24T11:32:18;7.40;;;4.93;;
23716;SDS011;22094;52.130;5.598;2023-07-24T11:34:45;6.53;;;4.30;;
23716;SDS011;22094;52.130;5.598;2023-07-24T11:37:12;7.25;;;4.72;;
23716;SDS011;22094;52.130;5.598;2023-07-24T11:39:38;7.18;;;4.63;;
23716;SDS011;22094;52.130;5.598;2023-07-24T11:42:04;6.78;;;4.70;;
23716;SDS011;22094;52.130;5.598;2023-07-24T11:44:30;7.20;;;4.93;;
23716;SDS011;22094;52.130;5.598;2023-07-24T11:47:03;9.05;;;5.10;;
23716;SDS011;22094;52.130;5.598;2023-07-24T11:49:30;6.78;;;4.97;;
23716;SDS011;22094;52.130;5.598;2023-07-24T11:52:00;5.90;;;5.18;;
23716;SDS011;22094;52.130;5.598;2023-07-24T11:54:29;6.28;;;5.18;;
23716;SDS011;22094;52.130;5.598;2023-07-24T11:56:54;10.48;;;5.90;;
23716;SDS011;22094;52.130;5.598;2023-07-24T11:59:20;8.57;;;5.75;;
23716;SDS011;22094;52.130;5.598;2023-07-24T12:01:47;8.35;;;6.22;;
23716;SDS011;22094;52.130;5.598;2023-07-24T12:04:13;8.48;;;6.63;;
23716;SDS011;22094;52.130;5.598;2023-07-24T12:06:40;8.02;;;6.18;;
23716;SDS011;22094;52.130;5.598;2023-07-24T12:09:06;6.65;;;5.80;;
23716;SDS011;22094;52.130;5.598;2023-07-24T12:11:33;8.32;;;5.85;;
23716;SDS011;22094;52.130;5.598;2023-07-24T12:14:03;11.85;;;7.05;;
23716;SDS011;22094;52.130;5.598;2023-07-24T12:16:29;9.07;;;7.60;;
23716;SDS011;22094;52.130;5.598;2023-07-24T12:18:55;8.88;;;7.30;;
23716;SDS011;22094;52.130;5.598;2023-07-24T12:21:21;11.65;;;7.43;;
23716;SDS011;22094;52.130;5.598;2023-07-24T12:23:47;9.88;;;7.68;;
23716;SDS011;22094;52.130;5.598;2023-07-24T12:26:13;8.48;;;7.45;;
23716;SDS011;22094;52.130;5.598;2023-07-24T12:28:39;10.80;;;7.55;;
23716;SDS011;22094;52.130;5.598;2023-07-24T12:31:05;11.90;;;7.32;;
23716;SDS011;22094;52.130;5.598;2023-07-24T12:33:31;8.38;;;6.38;;
23716;SDS011;22094;52.130;5.598;2023-07-24T12:35:57;7.80;;;6.07;;
23716;SDS011;22094;52.130;5.598;2023-07-24T12:38:22;9.60;;;6.50;;
23716;SDS011;22094;52.130;5.598;2023-07-24T12:40:49;8.23;;;6.75;;
23716;SDS011;22094;52.130;5.598;2023-07-24T12:43:15;10.57;;;6.72;;
23716;SDS011;22094;52.130;5.598;2023-07-24T12:45:41;9.55;;;6.80;;
23716;SDS011;22094;52.130;5.598;2023-07-24T12:48:07;8.57;;;6.53;;
23716;SDS011;22094;52.130;5.598;2023-07-24T12:50:33;10.02;;;6.43;;
23716;SDS011;22094;52.130;5.598;2023-07-24T12:52:59;8.85;;;6.38;;
23716;SDS011;22094;52.130;5.598;2023-07-24T12:55:25;8.65;;;6.57;;
23716;SDS011;22094;52.130;5.598;2023-07-24T12:57:52;9.10;;;6.40;;
23716;SDS011;22094;52.130;5.598;2023-07-24T13:00:18;9.50;;;6.57;;
23716;SDS011;22094;52.130;5.598;2023-07-24T13:02:44;8.77;;;6.45;;
23716;SDS011;22094;52.130;5.598;2023-07-24T13:05:10;8.70;;;6.57;;
23716;SDS011;22094;52.130;5.598;2023-07-24T13:07:36;9.90;;;6.72;;
23716;SDS011;22094;52.130;5.598;2023-07-24T13:10:02;8.48;;;6.00;;
23716;SDS011;22094;52.130;5.598;2023-07-24T13:12:28;8.50;;;6.20;;
23716;SDS011;22094;52.130;5.598;2023-07-24T13:14:54;10.95;;;6.43;;
23716;SDS011;22094;52.130;5.598;2023-07-24T13:17:19;7.45;;;6.00;;
23716;SDS011;22094;52.130;5.598;2023-07-24T13:19:45;8.32;;;6.05;;
23716;SDS011;22094;52.130;5.598;2023-07-24T13:22:11;6.78;;;5.00;;
23716;SDS011;22094;52.130;5.598;2023-07-24T13:24:37;5.70;;;4.38;;
23716;SDS011;22094;52.130;5.598;2023-07-24T13:27:03;6.10;;;4.03;;
23716;SDS011;22094;52.130;5.598;2023-07-24T13:29:29;8.43;;;4.72;;
23716;SDS011;22094;52.130;5.598;2023-07-24T13:31:56;8.05;;;4.90;;
23716;SDS011;22094;52.130;5.598;2023-07-24T13:34:23;6.05;;;4.70;;
23716;SDS011;22094;52.130;5.598;2023-07-24T13:36:49;8.82;;;6.10;;
23716;SDS011;22094;52.130;5.598;2023-07-24T13:39:15;10.95;;;6.82;;
23716;SDS011;22094;52.130;5.598;2023-07-24T13:41:42;11.05;;;7.75;;
23716;SDS011;22094;52.130;5.598;2023-07-24T13:44:08;15.52;;;9.60;;
23716;SDS011;22094;52.130;5.598;2023-07-24T13:46:34;12.88;;;10.50;;
23716;SDS011;22094;52.130;5.598;2023-07-24T13:49:00;17.13;;;12.55;;
23716;SDS011;22094;52.130;5.598;2023-07-24T13:51:26;16.75;;;13.40;;
23716;SDS011;22094;52.130;5.598;2023-07-24T13:53:51;16.88;;;12.80;;
23716;SDS011;22094;52.130;5.598;2023-07-24T13:56:18;15.32;;;13.10;;
23716;SDS011;22094;52.130;5.598;2023-07-24T13:58:44;15.38;;;13.70;;
23716;SDS011;22094;52.130;5.598;2023-07-24T14:01:10;15.43;;;13.30;;
23716;SDS011;22094;52.130;5.598;2023-07-24T14:03:35;16.13;;;13.38;;
23716;SDS011;22094;52.130;5.598;2023-07-24T14:06:01;22.73;;;14.30;;
23716;SDS011;22094;52.130;5.598;2023-07-24T14:08:27;19.52;;;14.63;;
23716;SDS011;22094;52.130;5.598;2023-07-24T14:10:53;20.10;;;15.50;;
23716;SDS011;22094;52.130;5.598;2023-07-24T14:13:18;22.33;;;16.38;;
23716;SDS011;22094;52.130;5.598;2023-07-24T14:15:44;18.80;;;15.63;;
23716;SDS011;22094;52.130;5.598;2023-07-24T14:18:09;18.45;;;15.75;;
23716;SDS011;22094;52.130;5.598;2023-07-24T14:20:35;18.75;;;13.93;;
23716;SDS011;22094;52.130;5.598;2023-07-24T14:23:02;13.40;;;11.27;;
23716;SDS011;22094;52.130;5.598;2023-07-24T14:25:27;11.27;;;10.07;;
23716;SDS011;22094;52.130;5.598;2023-07-24T14:27:53;10.93;;;9.15;;
23716;SDS011;22094;52.130;5.598;2023-07-24T14:30:18;10.98;;;9.40;;
23716;SDS011;22094;52.130;5.598;2023-07-24T14:32:44;8.93;;;8.02;;
23716;SDS011;22094;52.130;5.598;2023-07-24T14:35:10;10.60;;;7.93;;
23716;SDS011;22094;52.130;5.598;2023-07-24T14:37:35;8.88;;;7.97;;
23716;SDS011;22094;52.130;5.598;2023-07-24T14:40:01;8.20;;;7.10;;
23716;SDS011;22094;52.130;5.598;2023-07-24T14:42:27;8.05;;;7.22;;
23716;SDS011;22094;52.130;5.598;2023-07-24T14:44:53;6.88;;;6.28;;
23716;SDS011;22094;52.130;5.598;2023-07-24T14:47:19;8.68;;;6.85;;
23716;SDS011;22094;52.130;5.598;2023-07-24T14:49:44;9.07;;;6.80;;
23716;SDS011;22094;52.130;5.598;2023-07-24T14:52:10;7.53;;;6.78;;